createdAt,value
2017-11-16T00:01:50.102Z,99026.56
2017-11-16T00:04:18.359Z,99035.52
2017-11-16T00:06:46.621Z,99030.12
2017-11-16T00:09:15.649Z,99037.46
2017-11-16T00:11:43.914Z,99032.78
2017-11-16T00:14:12.184Z,99032.50
2017-11-16T00:16:40.443Z,99037.34
2017-11-16T00:19:09.479Z,99038.44
2017-11-16T00:21:37.753Z,99040.23
2017-11-16T00:24:06.034Z,99050.58
2017-11-16T00:26:34.289Z,99046.85
2017-11-16T00:29:02.582Z,99050.40
2017-11-16T00:31:31.581Z,99048.73
2017-11-16T00:34:00.607Z,99043.06
2017-11-16T00:36:28.867Z,99044.82
2017-11-16T00:38:57.128Z,99044.88
2017-11-16T00:41:25.409Z,99045.25
2017-11-16T00:43:53.671Z,99043.63
2017-11-16T00:46:21.941Z,99041.55
2017-11-16T00:48:50.201Z,99038.97
2017-11-16T00:51:18.480Z,99036.52
2017-11-16T00:53:46.768Z,99032.11
2017-11-16T00:56:15.023Z,99033.11
2017-11-16T00:58:43.284Z,99031.42
2017-11-16T01:01:12.318Z,99032.30
2017-11-16T01:03:40.591Z,99038.34
2017-11-16T01:06:08.860Z,99034.20
2017-11-16T01:08:37.142Z,99034.56
2017-11-16T01:11:05.414Z,99034.77
2017-11-16T01:13:33.690Z,99040.12
2017-11-16T01:16:01.937Z,99031.02
2017-11-16T01:18:30.996Z,99028.73
2017-11-16T01:20:59.247Z,99033.17
2017-11-16T01:23:27.517Z,99032.98
2017-11-16T01:25:55.780Z,99027.48
2017-11-16T01:28:24.029Z,99032.86
2017-11-16T01:30:53.053Z,99033.02
2017-11-16T01:33:21.329Z,99038.89
2017-11-16T01:35:49.592Z,99035.86
2017-11-16T01:38:17.858Z,99034.00
2017-11-16T01:40:46.118Z,99027.70
2017-11-16T01:43:15.134Z,99033.84
2017-11-16T01:45:43.386Z,99030.22
2017-11-16T01:48:12.418Z,99025.22
2017-11-16T01:50:40.690Z,99021.36
2017-11-16T01:53:08.940Z,99022.16
2017-11-16T01:55:38.007Z,99021.60
2017-11-16T01:58:06.264Z,99022.17
2017-11-16T02:00:34.525Z,99023.18
2017-11-16T02:03:02.808Z,99017.86
2017-11-16T02:05:31.082Z,99015.75
2017-11-16T02:07:59.366Z,99014.51
2017-11-16T02:10:27.621Z,99009.20
2017-11-16T02:12:55.878Z,99015.21
2017-11-16T02:15:24.136Z,99005.53
2017-11-16T02:17:53.165Z,99003.68
2017-11-16T02:20:21.418Z,98992.52
2017-11-16T02:22:49.706Z,98988.30
2017-11-16T02:25:17.974Z,98987.06
2017-11-16T02:27:46.283Z,98983.86
2017-11-16T02:30:14.548Z,98981.00
2017-11-16T02:32:42.814Z,98982.82
2017-11-16T02:35:11.103Z,98984.97
2017-11-16T02:37:39.353Z,98981.41
2017-11-16T02:40:07.637Z,98973.58
2017-11-16T02:42:35.897Z,98972.78
2017-11-16T02:45:04.925Z,98973.70
2017-11-16T02:47:33.180Z,98973.13
2017-11-16T02:50:01.451Z,98963.68
2017-11-16T02:52:29.748Z,98967.69
2017-11-16T02:54:58.023Z,98960.23
2017-11-16T02:57:26.283Z,98954.11
2017-11-16T02:59:54.744Z,98961.86
2017-11-16T03:02:23.025Z,98969.89
2017-11-16T03:04:51.294Z,98959.95
2017-11-16T03:07:20.331Z,98962.64
2017-11-16T03:09:48.604Z,98961.16
2017-11-16T03:12:16.880Z,98957.83
2017-11-16T03:14:45.154Z,98966.17
2017-11-16T03:17:13.411Z,98961.95
2017-11-16T03:19:41.672Z,98963.13
2017-11-16T03:22:10.691Z,98961.50
2017-11-16T03:24:38.972Z,98962.02
2017-11-16T03:27:07.250Z,98965.03
2017-11-16T03:29:35.536Z,98971.09
2017-11-16T03:32:04.574Z,98968.76
2017-11-16T03:34:33.619Z,98971.09
2017-11-16T03:37:01.905Z,98966.02
2017-11-16T03:39:30.159Z,98960.20
2017-11-16T03:41:58.433Z,98960.81
2017-11-16T03:44:26.700Z,98961.19
2017-11-16T03:46:54.961Z,98961.65
2017-11-16T03:49:24.004Z,98961.44
2017-11-16T03:51:53.051Z,98965.53
2017-11-16T03:54:21.315Z,98958.05
2017-11-16T03:56:50.355Z,98963.25
2017-11-16T03:59:18.615Z,98952.50
2017-11-16T04:01:46.906Z,98957.70
2017-11-16T04:04:15.169Z,98956.51
2017-11-16T04:06:43.458Z,98957.86
2017-11-16T04:09:11.717Z,98955.13
2017-11-16T04:11:39.999Z,98953.19
2017-11-16T04:14:08.257Z,98954.54
2017-11-16T04:16:36.517Z,98953.52
2017-11-16T04:19:05.545Z,98960.54
2017-11-16T04:21:33.819Z,98952.54
2017-11-16T04:24:02.085Z,98959.06
2017-11-16T04:26:30.343Z,98951.31
2017-11-16T04:28:59.396Z,98949.61
2017-11-16T04:31:27.667Z,98944.84
2017-11-16T04:33:55.953Z,98943.95
2017-11-16T04:36:24.232Z,98938.23
2017-11-16T04:38:52.496Z,98936.78
2017-11-16T04:41:20.755Z,98925.09
2017-11-16T04:43:49.042Z,98931.59
2017-11-16T04:46:17.316Z,98935.73
2017-11-16T04:48:45.567Z,98936.45
2017-11-16T04:51:13.828Z,98938.32
2017-11-16T04:53:42.105Z,98937.86
2017-11-16T04:56:10.384Z,98931.89
2017-11-16T04:58:38.648Z,98937.86
2017-11-16T05:01:06.929Z,98935.83
2017-11-16T05:03:35.204Z,98931.83
2017-11-16T05:06:03.468Z,98939.30
2017-11-16T05:08:31.732Z,98932.56
2017-11-16T05:11:00.031Z,98935.92
2017-11-16T05:13:29.059Z,98933.64
2017-11-16T05:15:57.324Z,98929.20
2017-11-16T05:18:25.591Z,98936.38
2017-11-16T05:20:53.859Z,98939.49
2017-11-16T05:23:22.151Z,98943.95
2017-11-16T05:25:50.415Z,98951.31
2017-11-16T05:28:18.689Z,98951.92
2017-11-16T05:30:46.940Z,98956.11
2017-11-16T05:33:15.989Z,98954.36
2017-11-16T05:35:44.249Z,98953.92
2017-11-16T05:38:12.528Z,98953.52
2017-11-16T05:40:40.798Z,98961.00
2017-11-16T05:43:09.102Z,98962.78
2017-11-16T05:45:37.361Z,98960.11
2017-11-16T05:48:05.636Z,98948.69
2017-11-16T05:50:33.908Z,98946.81
2017-11-16T05:53:02.187Z,98947.18
2017-11-16T05:55:30.453Z,98949.03
2017-11-16T05:57:58.716Z,98947.55
2017-11-16T06:00:26.987Z,98948.05
2017-11-16T06:02:55.245Z,98952.75
2017-11-16T06:05:24.281Z,98957.00
2017-11-16T06:07:52.541Z,98962.84
2017-11-16T06:10:20.813Z,98960.66
2017-11-16T06:12:49.079Z,98968.23
2017-11-16T06:15:17.370Z,98972.41
2017-11-16T06:17:45.631Z,98971.39
2017-11-16T06:20:13.897Z,98974.32
2017-11-16T06:22:42.920Z,98977.00
2017-11-16T06:25:11.217Z,98975.73
2017-11-16T06:27:39.493Z,98968.47
2017-11-16T06:30:07.765Z,98974.08
2017-11-16T06:32:36.044Z,98971.95
2017-11-16T06:35:04.345Z,98977.80
2017-11-16T06:37:32.617Z,98969.77
2017-11-16T06:40:00.896Z,98976.02
2017-11-16T06:42:29.162Z,98967.98
2017-11-16T06:44:57.453Z,98970.85
2017-11-16T06:47:25.728Z,98970.54
2017-11-16T06:49:54.000Z,98976.79
2017-11-16T06:52:22.263Z,98970.08
2017-11-16T06:54:50.538Z,98973.25
2017-11-16T06:57:18.792Z,98969.84
2017-11-16T06:59:47.073Z,98979.77
2017-11-16T07:02:15.333Z,98978.84
2017-11-16T07:04:43.586Z,98983.77
2017-11-16T07:07:11.993Z,98983.95
2017-11-16T07:09:40.250Z,98976.33
2017-11-16T07:12:08.532Z,98982.55
2017-11-16T07:14:36.783Z,98984.92
2017-11-16T07:17:05.804Z,98981.34
2017-11-16T07:19:34.055Z,98982.89
2017-11-16T07:22:03.128Z,98984.14
2017-11-16T07:24:31.388Z,98986.64
2017-11-16T07:26:59.641Z,98992.12
2017-11-16T07:29:28.004Z,98986.36
2017-11-16T07:31:56.269Z,98990.89
2017-11-16T07:34:24.534Z,98991.38
2017-11-16T07:36:53.575Z,98994.37
2017-11-16T07:39:21.853Z,98992.48
2017-11-16T07:41:50.132Z,98991.26
2017-11-16T07:44:18.374Z,98994.37
2017-11-16T07:46:46.644Z,98989.20
2017-11-16T07:49:14.901Z,98995.72
2017-11-16T07:51:43.933Z,98994.05
2017-11-16T07:54:12.204Z,98995.91
2017-11-16T07:56:40.464Z,99003.32
2017-11-16T07:59:08.718Z,98995.32
2017-11-16T08:01:37.752Z,98994.95
2017-11-16T08:04:06.010Z,98992.92
2017-11-16T08:06:34.282Z,98994.61
2017-11-16T08:09:02.558Z,98986.70
2017-11-16T08:11:30.816Z,98984.52
2017-11-16T08:13:59.851Z,98981.88
2017-11-16T08:16:28.115Z,98981.63
2017-11-16T08:18:56.371Z,98977.87
2017-11-16T08:21:24.628Z,98974.58
2017-11-16T08:23:53.758Z,98978.69
2017-11-16T08:26:22.022Z,98977.16
2017-11-16T08:28:50.271Z,98969.03
2017-11-16T08:31:19.304Z,98966.66
2017-11-16T08:33:47.562Z,98971.23
2017-11-16T08:36:16.575Z,98967.89
2017-11-16T08:38:44.820Z,98968.95
2017-11-16T08:41:13.078Z,98967.69
2017-11-16T08:43:41.319Z,98977.03
2017-11-16T08:46:09.567Z,98967.00
2017-11-16T08:48:37.816Z,98970.53
2017-11-16T08:51:06.828Z,98969.48
2017-11-16T08:53:35.081Z,98966.41
2017-11-16T08:56:03.314Z,98967.39
2017-11-16T08:58:31.563Z,98971.39
2017-11-16T09:00:59.828Z,98972.87
2017-11-16T09:03:28.081Z,98975.36
2017-11-16T09:05:57.093Z,98979.87
2017-11-16T09:08:25.349Z,98987.37
2017-11-16T09:10:54.368Z,98987.63
2017-11-16T09:13:22.613Z,98985.22
2017-11-16T09:15:51.630Z,98994.02
2017-11-16T09:18:19.873Z,98998.98
2017-11-16T09:20:48.119Z,98995.21
2017-11-16T09:23:16.366Z,98996.82
2017-11-16T09:25:44.608Z,98995.26
2017-11-16T09:28:13.655Z,98994.86
2017-11-16T09:30:41.924Z,98992.48
2017-11-16T09:33:10.172Z,99001.51
2017-11-16T09:35:38.436Z,99000.89
2017-11-16T09:38:07.449Z,99007.02
2017-11-16T09:40:35.694Z,98999.56
2017-11-16T09:43:03.944Z,99003.08
2017-11-16T09:45:32.188Z,98988.98
2017-11-16T09:48:00.439Z,98990.61
2017-11-16T09:50:29.446Z,98994.27
2017-11-16T09:52:57.691Z,98993.01
2017-11-16T09:55:26.703Z,98991.41
2017-11-16T09:57:54.952Z,98989.59
2017-11-16T10:00:24.698Z,98989.44
2017-11-16T10:02:52.954Z,98994.03
2017-11-16T10:05:21.970Z,98991.07
2017-11-16T10:07:50.230Z,98989.50
2017-11-16T10:10:18.480Z,98998.16
2017-11-16T10:12:46.721Z,98988.36
2017-11-16T10:15:14.982Z,98989.22
2017-11-16T10:17:43.221Z,98979.73
2017-11-16T10:20:12.232Z,98978.88
2017-11-16T10:22:40.487Z,98975.86
2017-11-16T10:25:09.503Z,98972.41
2017-11-16T10:27:37.745Z,98964.94
2017-11-16T10:30:06.054Z,98969.44
2017-11-16T10:32:34.306Z,98965.11
2017-11-16T10:35:03.319Z,98966.03
2017-11-16T10:37:31.562Z,98961.47
2017-11-16T10:39:59.807Z,98958.41
2017-11-16T10:42:28.059Z,98955.63
2017-11-16T10:44:56.311Z,98956.84
2017-11-16T10:47:25.322Z,98952.78
2017-11-16T10:49:53.825Z,98956.11
2017-11-16T10:52:22.054Z,98954.80
2017-11-16T10:54:51.084Z,98946.27
2017-11-16T10:57:19.323Z,98943.52
2017-11-16T10:59:48.338Z,98938.80
2017-11-16T11:02:16.586Z,98934.53
2017-11-16T11:04:45.601Z,98937.54
2017-11-16T11:07:13.844Z,98932.05
2017-11-16T11:09:42.092Z,98928.64
2017-11-16T11:12:10.342Z,98928.47
2017-11-16T11:14:38.582Z,98922.10
2017-11-16T11:17:07.598Z,98928.30
2017-11-16T11:19:35.867Z,98928.31
2017-11-16T11:22:04.115Z,98936.52
2017-11-16T11:24:32.355Z,98939.23
2017-11-16T11:27:00.607Z,98934.17
2017-11-16T11:29:28.847Z,98929.58
2017-11-16T11:31:57.860Z,98931.91
2017-11-16T11:34:26.867Z,98930.34
2017-11-16T11:36:55.125Z,98924.05
2017-11-16T11:39:24.134Z,98925.31
2017-11-16T11:41:52.375Z,98923.88
2017-11-16T11:44:21.386Z,98927.64
2017-11-16T11:46:49.630Z,98932.13
2017-11-16T11:49:17.872Z,98938.41
2017-11-16T11:51:46.929Z,98931.70
2017-11-16T11:54:15.938Z,98931.32
2017-11-16T11:56:44.191Z,98925.61
2017-11-16T11:59:13.196Z,98929.30
2017-11-16T12:01:41.450Z,98929.32
2017-11-16T12:04:10.466Z,98932.98
2017-11-16T12:06:39.476Z,98926.75
2017-11-16T12:09:07.719Z,98919.26
2017-11-16T12:11:36.727Z,98914.58
2017-11-16T12:14:04.967Z,98913.97
2017-11-16T12:16:33.216Z,98911.07
2017-11-16T12:19:02.222Z,98900.86
2017-11-16T12:21:30.474Z,98900.34
2017-11-16T12:23:58.718Z,98891.66
2017-11-16T12:26:26.979Z,98892.49
2017-11-16T12:28:55.288Z,98898.52
2017-11-16T12:31:23.533Z,98897.05
2017-11-16T12:33:52.540Z,98892.77
2017-11-16T12:36:21.553Z,98899.84
2017-11-16T12:38:49.795Z,98896.19
2017-11-16T12:41:18.811Z,98890.08
2017-11-16T12:43:47.063Z,98889.80
2017-11-16T12:46:15.301Z,98884.63
2017-11-16T12:48:44.338Z,98884.88
2017-11-16T12:51:12.570Z,98878.94
2017-11-16T12:53:40.818Z,98876.66
2017-11-16T12:56:09.056Z,98875.30
2017-11-16T12:58:38.080Z,98870.81
2017-11-16T13:01:06.318Z,98868.77
2017-11-16T13:03:34.563Z,98872.03
2017-11-16T13:06:02.802Z,98872.76
2017-11-16T13:08:31.054Z,98868.42
2017-11-16T13:11:00.055Z,98859.67
2017-11-16T13:13:29.072Z,98856.98
2017-11-16T13:15:57.315Z,98851.06
2017-11-16T13:18:26.331Z,98846.42
2017-11-16T13:20:54.579Z,98851.88
2017-11-16T13:23:23.590Z,98854.52
2017-11-16T13:25:51.844Z,98855.66
2017-11-16T13:28:20.090Z,98857.61
2017-11-16T13:30:48.340Z,98846.73
2017-11-16T13:33:16.579Z,98853.88
2017-11-16T13:35:45.583Z,98854.51
2017-11-16T13:38:13.832Z,98858.69
2017-11-16T13:40:42.081Z,98855.92
2017-11-16T13:43:10.332Z,98857.79
2017-11-16T13:45:38.570Z,98853.02
2017-11-16T13:48:07.602Z,98854.66
2017-11-16T13:50:35.855Z,98857.23
2017-11-16T13:53:04.855Z,98853.67
2017-11-16T13:55:33.109Z,98854.17
2017-11-16T13:58:02.111Z,98857.70
2017-11-16T14:00:31.127Z,98853.42
2017-11-16T14:02:59.372Z,98861.83
2017-11-16T14:05:28.386Z,98856.86
2017-11-16T14:07:56.639Z,98854.23
2017-11-16T14:10:25.655Z,98849.06
2017-11-16T14:12:53.915Z,98854.08
2017-11-16T14:15:22.921Z,98850.09
2017-11-16T14:17:51.165Z,98851.50
2017-11-16T14:20:19.422Z,98851.19
2017-11-16T14:22:47.672Z,98848.75
2017-11-16T14:25:15.916Z,98846.53
2017-11-16T14:27:44.167Z,98853.85
2017-11-16T14:30:13.193Z,98848.23
2017-11-16T14:32:41.442Z,98844.36
2017-11-16T14:35:10.456Z,98849.27
2017-11-16T14:37:38.703Z,98859.53
2017-11-16T14:40:06.950Z,98859.13
2017-11-16T14:42:35.201Z,98857.09
2017-11-16T14:45:03.447Z,98850.64
2017-11-16T14:47:32.470Z,98853.94
2017-11-16T14:50:00.718Z,98852.33
2017-11-16T14:52:29.722Z,98846.11
2017-11-16T14:54:57.958Z,98857.77
2017-11-16T14:57:26.232Z,98853.59
2017-11-16T14:59:54.476Z,98856.05
2017-11-16T15:02:22.731Z,98859.15
2017-11-16T15:04:50.976Z,98859.83
2017-11-16T15:07:19.985Z,98866.09
2017-11-16T15:09:48.996Z,98867.80
2017-11-16T15:12:17.248Z,98867.14
2017-11-16T15:14:46.259Z,98865.30
2017-11-16T15:17:14.498Z,98873.34
2017-11-16T15:19:43.518Z,98867.66
2017-11-16T15:22:11.766Z,98876.12
2017-11-16T15:24:40.010Z,98872.77
2017-11-16T15:27:08.259Z,98873.11
2017-11-16T15:29:36.518Z,98869.53
2017-11-16T15:32:04.762Z,98865.84
2017-11-16T15:34:33.011Z,98867.05
2017-11-16T15:37:01.267Z,98867.91
2017-11-16T15:39:29.511Z,98868.58
2017-11-16T15:41:58.527Z,98866.83
2017-11-16T15:44:26.771Z,98876.77
2017-11-16T15:46:55.780Z,98868.15
2017-11-16T15:49:24.037Z,98869.20
2017-11-16T15:51:53.047Z,98862.85
2017-11-16T15:54:21.290Z,98864.73
2017-11-16T15:56:49.567Z,98863.97
2017-11-16T15:59:17.799Z,98862.12
2017-11-16T16:01:46.599Z,98863.30
2017-11-16T16:04:14.856Z,98864.71
2017-11-16T16:06:43.094Z,98867.05
2017-11-16T16:09:12.108Z,98870.58
2017-11-16T16:11:40.367Z,98873.04
2017-11-16T16:14:09.386Z,98875.69
2017-11-16T16:16:37.628Z,98873.59
2017-11-16T16:19:06.668Z,98880.67
2017-11-16T16:21:34.913Z,98879.28
2017-11-16T16:24:03.948Z,98881.87
2017-11-16T16:26:32.186Z,98877.34
2017-11-16T16:29:00.428Z,98881.10
2017-11-16T16:31:28.676Z,98881.78
2017-11-16T16:33:56.923Z,98877.19
2017-11-16T16:36:25.168Z,98878.84
2017-11-16T16:38:54.172Z,98879.34
2017-11-16T16:41:23.180Z,98880.45
2017-11-16T16:43:51.423Z,98882.48
2017-11-16T16:46:19.663Z,98879.72
2017-11-16T16:48:47.903Z,98880.15
2017-11-16T16:51:16.158Z,98886.42
2017-11-16T16:53:45.173Z,98889.84
2017-11-16T16:56:13.411Z,98889.22
2017-11-16T16:58:41.648Z,98894.17
2017-11-16T17:01:09.883Z,98889.80
2017-11-16T17:03:38.905Z,98887.56
2017-11-16T17:06:07.133Z,98895.92
2017-11-16T17:08:35.375Z,98902.05
2017-11-16T17:11:04.395Z,98904.08
2017-11-16T17:13:32.624Z,98901.13
2017-11-16T17:16:00.872Z,98903.62
2017-11-16T17:18:29.882Z,98900.85
2017-11-16T17:20:58.130Z,98910.14
2017-11-16T17:23:27.151Z,98908.08
2017-11-16T17:25:55.394Z,98911.92
2017-11-16T17:28:24.402Z,98910.73
2017-11-16T17:30:52.654Z,98907.70
2017-11-16T17:33:20.893Z,98911.83
2017-11-16T17:35:49.136Z,98904.17
2017-11-16T17:38:17.380Z,98908.02
2017-11-16T17:40:45.624Z,98903.95
2017-11-16T17:43:13.861Z,98904.05
2017-11-16T17:45:42.125Z,98913.95
2017-11-16T17:48:11.131Z,98910.69
2017-11-16T17:50:39.366Z,98909.28
2017-11-16T17:53:07.620Z,98909.52
2017-11-16T17:55:35.850Z,98909.98
2017-11-16T17:58:04.122Z,98904.79
2017-11-16T18:00:32.363Z,98906.66
2017-11-16T18:03:00.603Z,98911.03
2017-11-16T18:05:28.844Z,98914.24
2017-11-16T18:07:57.853Z,98916.37
2017-11-16T18:10:26.094Z,98913.28
2017-11-16T18:12:55.111Z,98923.66
2017-11-16T18:15:23.356Z,98926.31
2017-11-16T18:17:51.607Z,98923.14
2017-11-16T18:20:19.856Z,98924.48
2017-11-16T18:22:48.087Z,98923.27
2017-11-16T18:25:17.107Z,98924.73
2017-11-16T18:27:45.343Z,98933.27
2017-11-16T18:30:13.595Z,98931.25
2017-11-16T18:32:41.840Z,98933.09
2017-11-16T18:35:10.090Z,98931.81
2017-11-16T18:37:39.090Z,98931.36
2017-11-16T18:40:08.108Z,98932.14
2017-11-16T18:42:36.356Z,98933.04
2017-11-16T18:45:05.367Z,98939.36
2017-11-16T18:47:33.615Z,98936.22
2017-11-16T18:50:02.657Z,98943.11
2017-11-16T18:52:30.898Z,98941.67
2017-11-16T18:54:59.135Z,98941.34
2017-11-16T18:57:27.378Z,98947.27
2017-11-16T18:59:55.612Z,98951.95
2017-11-16T19:02:24.622Z,98950.85
2017-11-16T19:04:52.873Z,98948.50
2017-11-16T19:07:21.118Z,98946.86
2017-11-16T19:09:49.368Z,98956.30
2017-11-16T19:12:17.619Z,98948.94
2017-11-16T19:14:46.629Z,98950.20
2017-11-16T19:17:14.891Z,98948.11
2017-11-16T19:19:43.889Z,98951.98
2017-11-16T19:22:12.131Z,98957.10
2017-11-16T19:24:41.141Z,98945.48
2017-11-16T19:27:10.151Z,98945.50
2017-11-16T19:29:38.400Z,98954.80
2017-11-16T19:32:07.414Z,98960.88
2017-11-16T19:34:35.669Z,98947.84
2017-11-16T19:37:04.684Z,98951.88
2017-11-16T19:39:32.925Z,98951.16
2017-11-16T19:42:01.164Z,98955.19
2017-11-16T19:44:29.414Z,98959.77
2017-11-16T19:46:57.660Z,98955.51
2017-11-16T19:49:26.673Z,98960.50
2017-11-16T19:51:54.927Z,98957.47
2017-11-16T19:54:23.944Z,98961.65
2017-11-16T19:56:52.203Z,98958.59
2017-11-16T19:59:21.214Z,98957.70
2017-11-16T20:01:49.470Z,98962.05
2017-11-16T20:04:18.484Z,98958.38
2017-11-16T20:06:46.740Z,98958.27
2017-11-16T20:09:15.741Z,98953.52
2017-11-16T20:11:43.999Z,98958.34
2017-11-16T20:14:13.018Z,98954.49
2017-11-16T20:16:41.287Z,98949.85
2017-11-16T20:19:09.551Z,98948.72
2017-11-16T20:21:38.560Z,98950.19
2017-11-16T20:24:06.950Z,98957.71
2017-11-16T20:26:35.243Z,98954.47
2017-11-16T20:29:03.529Z,98961.69
2017-11-16T20:31:31.805Z,98960.56
2017-11-16T20:34:00.077Z,98960.13
2017-11-16T20:36:28.336Z,98956.59
2017-11-16T20:38:57.453Z,98959.11
2017-11-16T20:41:30.627Z,98960.56
2017-11-16T20:47:18.293Z,98964.44
2017-11-16T20:52:52.138Z,98964.11
2017-11-16T20:55:20.375Z,98970.54
2017-11-16T20:57:48.619Z,98979.52
2017-11-16T21:00:17.639Z,98979.73
2017-11-16T21:02:45.883Z,98980.88
2017-11-16T21:05:14.898Z,98980.95
2017-11-16T21:07:43.147Z,98978.70
2017-11-16T21:10:12.164Z,98978.80
2017-11-16T21:12:40.460Z,98975.55
2017-11-16T21:15:08.720Z,98974.61
2017-11-16T21:17:37.042Z,98977.20
2017-11-16T21:20:05.307Z,98975.14
2017-11-16T21:22:33.560Z,98971.27
2017-11-16T21:25:01.816Z,98972.69
2017-11-16T21:27:30.089Z,98965.39
2017-11-16T21:29:58.372Z,98970.96
2017-11-16T21:32:26.674Z,98966.86
2017-11-16T21:34:54.911Z,98965.29
2017-11-16T21:37:23.935Z,98967.67
2017-11-16T21:39:52.195Z,98962.70
2017-11-16T21:42:20.518Z,98967.41
2017-11-16T21:44:48.778Z,98959.70
2017-11-16T21:47:17.031Z,98964.95
2017-11-16T21:49:45.273Z,98964.59
2017-11-16T21:52:14.304Z,98965.20
2017-11-16T21:54:42.556Z,98958.50
2017-11-16T21:57:11.570Z,98947.09
2017-11-16T21:59:39.810Z,98948.95
2017-11-16T22:02:08.823Z,98955.84
2017-11-16T22:04:37.075Z,98961.62
2017-11-16T22:07:06.090Z,98962.80
2017-11-16T22:09:34.342Z,98960.47
2017-11-16T22:12:03.360Z,98963.30
2017-11-16T22:14:31.615Z,98965.42
2017-11-16T22:17:00.642Z,98973.41
2017-11-16T22:19:28.893Z,98979.77
2017-11-16T22:21:57.153Z,98982.39
2017-11-16T22:24:25.394Z,98988.48
2017-11-16T22:26:53.650Z,98974.23
2017-11-16T22:29:21.906Z,98976.42
2017-11-16T22:31:50.155Z,98977.14
2017-11-16T22:34:19.173Z,98972.50
2017-11-16T22:36:47.447Z,98977.51
2017-11-16T22:39:15.695Z,98982.91
2017-11-16T22:41:44.706Z,98978.88
2017-11-16T22:44:12.964Z,98974.42
2017-11-16T22:46:41.980Z,98972.98
2017-11-16T22:49:11.000Z,98975.25
2017-11-16T22:51:39.239Z,98974.58
2017-11-16T22:54:08.268Z,98978.82
2017-11-16T22:56:36.516Z,98987.55
2017-11-16T22:59:05.525Z,98990.60
2017-11-16T23:01:33.785Z,98985.45
2017-11-16T23:04:02.041Z,98989.41
2017-11-16T23:06:31.050Z,98989.88
2017-11-16T23:08:59.387Z,98987.95
2017-11-16T23:11:27.783Z,98993.36
2017-11-16T23:13:56.069Z,98988.55
2017-11-16T23:16:25.111Z,98986.53
2017-11-16T23:18:53.388Z,98987.98
2017-11-16T23:21:21.645Z,98995.86
2017-11-16T23:23:49.911Z,98991.72
2017-11-16T23:26:18.184Z,98987.17
2017-11-16T23:28:47.217Z,98983.45
2017-11-16T23:31:15.491Z,98981.48
2017-11-16T23:33:43.773Z,98980.95
2017-11-16T23:36:12.040Z,98983.65
2017-11-16T23:38:40.309Z,98980.77
2017-11-16T23:41:08.589Z,98983.28
2017-11-16T23:43:36.847Z,98970.05
2017-11-16T23:46:05.113Z,98973.32
2017-11-16T23:48:33.374Z,98969.84
2017-11-16T23:51:02.432Z,98962.16
2017-11-16T23:53:31.457Z,98967.73
2017-11-16T23:56:00.494Z,98963.32
2017-11-16T23:58:28.768Z,98961.72
